createdAt,value
2023-03-29T00:00:29.159Z,8.81
2023-03-29T00:01:35.881Z,8.76
2023-03-29T00:02:30.832Z,8.73
2023-03-29T00:03:30.075Z,8.76
2023-03-29T00:04:30.386Z,8.78
2023-03-29T00:05:30.606Z,8.81
2023-03-29T00:06:30.889Z,8.84
2023-03-29T00:07:31.189Z,8.88
2023-03-29T00:08:31.585Z,8.87
2023-03-29T00:09:31.838Z,8.83
2023-03-29T00:10:32.148Z,8.83
2023-03-29T00:11:32.441Z,8.76
2023-03-29T00:12:32.675Z,8.78
2023-03-29T00:13:32.999Z,8.76
2023-03-29T00:14:33.281Z,8.76
2023-03-29T00:15:33.621Z,8.72
2023-03-29T00:16:33.917Z,8.69
2023-03-29T00:17:34.240Z,8.69
2023-03-29T00:18:34.514Z,8.66
2023-03-29T00:19:34.817Z,8.65
2023-03-29T00:20:35.156Z,8.63
2023-03-29T00:21:35.421Z,8.62
2023-03-29T00:22:35.665Z,8.65
2023-03-29T00:23:36.024Z,8.66
2023-03-29T00:24:36.327Z,8.72
2023-03-29T00:25:36.513Z,8.75
2023-03-29T00:26:36.865Z,8.79
2023-03-29T00:27:37.221Z,8.84
2023-03-29T00:28:37.526Z,8.76
2023-03-29T00:29:37.768Z,8.71
2023-03-29T00:30:38.104Z,8.75
2023-03-29T00:31:38.487Z,8.76
2023-03-29T00:32:38.681Z,8.81
2023-03-29T00:33:38.897Z,8.81
2023-03-29T00:34:39.164Z,8.84
2023-03-29T00:35:39.515Z,8.78
2023-03-29T00:36:39.766Z,8.71
2023-03-29T00:37:40.126Z,8.66
2023-03-29T00:38:40.398Z,8.65
2023-03-29T00:39:40.700Z,8.63
2023-03-29T00:40:40.942Z,8.63
2023-03-29T00:41:41.206Z,8.63
2023-03-29T00:42:41.580Z,8.53
2023-03-29T00:43:41.806Z,8.47
2023-03-29T00:44:42.129Z,8.48
2023-03-29T00:45:43.321Z,8.47
2023-03-29T00:46:42.795Z,8.47
2023-03-29T00:47:43.033Z,8.50
2023-03-29T00:48:43.324Z,8.48
2023-03-29T00:49:43.544Z,8.51
2023-03-29T00:50:43.856Z,8.50
2023-03-29T00:51:44.222Z,8.47
2023-03-29T00:52:44.527Z,8.48
2023-03-29T00:53:44.681Z,8.48
2023-03-29T00:54:45.033Z,8.50
2023-03-29T00:55:45.366Z,8.51
2023-03-29T00:56:45.606Z,8.50
2023-03-29T00:57:45.892Z,8.50
2023-03-29T00:58:46.164Z,8.51
2023-03-29T00:59:46.404Z,8.47
2023-03-29T01:00:46.712Z,8.51
2023-03-29T01:01:47.125Z,8.54
2023-03-29T01:02:47.340Z,8.57
2023-03-29T01:03:47.634Z,8.55
2023-03-29T01:04:47.887Z,8.58
2023-03-29T01:05:48.086Z,8.57
2023-03-29T01:06:48.500Z,8.58
2023-03-29T01:07:48.654Z,8.54
2023-03-29T01:08:48.994Z,8.58
2023-03-29T01:09:49.298Z,8.55
2023-03-29T01:10:49.565Z,8.60
2023-03-29T01:11:49.839Z,8.60
2023-03-29T01:12:50.120Z,8.62
2023-03-29T01:13:50.448Z,8.58
2023-03-29T01:14:50.802Z,8.62
2023-03-29T01:15:51.001Z,8.58
2023-03-29T01:16:51.307Z,8.65
2023-03-29T01:17:51.588Z,8.68
2023-03-29T01:18:51.856Z,8.68
2023-03-29T01:19:52.136Z,8.63
2023-03-29T01:20:52.430Z,8.66
2023-03-29T01:21:52.709Z,8.63
2023-03-29T01:22:52.976Z,8.63
2023-03-29T01:23:53.373Z,8.62
2023-03-29T01:24:53.529Z,8.60
2023-03-29T01:25:53.704Z,8.57
2023-03-29T01:26:54.112Z,8.57
2023-03-29T01:27:54.367Z,8.53
2023-03-29T01:28:54.681Z,8.60
2023-03-29T01:29:54.953Z,8.55
2023-03-29T01:30:55.306Z,8.54
2023-03-29T01:31:55.600Z,8.50
2023-03-29T01:32:55.900Z,8.47
2023-03-29T01:33:56.153Z,8.50
2023-03-29T01:34:56.472Z,8.50
2023-03-29T01:35:56.736Z,8.51
2023-03-29T01:36:57.137Z,8.50
2023-03-29T01:37:57.288Z,8.47
2023-03-29T01:38:57.580Z,8.47
2023-03-29T01:39:57.899Z,8.45
2023-03-29T01:40:58.225Z,8.47
2023-03-29T01:41:58.425Z,8.47
2023-03-29T01:42:58.723Z,8.45
2023-03-29T01:43:59.038Z,8.45
2023-03-29T01:44:59.322Z,8.47
2023-03-29T01:45:59.711Z,8.51
2023-03-29T01:46:59.840Z,8.54
2023-03-29T01:48:00.193Z,8.54
2023-03-29T01:49:00.475Z,8.50
2023-03-29T01:50:00.743Z,8.51
2023-03-29T01:51:01.292Z,8.54
2023-03-29T01:52:01.340Z,8.51
2023-03-29T01:53:01.653Z,8.50
2023-03-29T01:54:01.988Z,8.47
2023-03-29T01:55:02.310Z,8.42
2023-03-29T01:56:02.548Z,8.45
2023-03-29T01:57:03.010Z,8.40
2023-03-29T01:58:03.151Z,8.39
2023-03-29T01:59:04.198Z,8.36
2023-03-29T02:00:03.665Z,8.39
2023-03-29T02:01:04.407Z,8.44
2023-03-29T02:02:04.308Z,8.42
2023-03-29T02:03:04.641Z,8.40
2023-03-29T02:04:04.861Z,8.40
2023-03-29T02:05:05.142Z,8.45
2023-03-29T02:06:05.440Z,8.51
2023-03-29T02:07:05.708Z,8.54
2023-03-29T02:08:06.030Z,8.54
2023-03-29T02:09:06.393Z,8.55
2023-03-29T02:10:06.630Z,8.54
2023-03-29T02:11:06.949Z,8.50
2023-03-29T02:12:07.201Z,8.48
2023-03-29T02:13:07.516Z,8.51
2023-03-29T02:14:07.748Z,8.50
2023-03-29T02:15:08.014Z,8.48
2023-03-29T02:16:08.404Z,8.53
2023-03-29T02:17:08.531Z,8.47
2023-03-29T02:18:08.893Z,8.51
2023-03-29T02:19:09.124Z,8.53
2023-03-29T02:20:09.464Z,8.55
2023-03-29T02:21:09.692Z,8.57
2023-03-29T02:22:09.994Z,8.54
2023-03-29T02:23:10.340Z,8.53
2023-03-29T02:24:10.745Z,8.50
2023-03-29T02:25:10.905Z,8.44
2023-03-29T02:26:11.169Z,8.42
2023-03-29T02:27:11.381Z,8.44
2023-03-29T02:28:11.782Z,8.50
2023-03-29T02:29:12.091Z,8.53
2023-03-29T02:30:12.326Z,8.54
2023-03-29T02:31:12.671Z,8.57
2023-03-29T02:32:12.959Z,8.60
2023-03-29T02:33:13.221Z,8.65
2023-03-29T02:34:13.483Z,8.57
2023-03-29T02:35:13.798Z,8.53
2023-03-29T02:36:14.131Z,8.55
2023-03-29T02:37:14.414Z,8.51
2023-03-29T02:38:14.713Z,8.58
2023-03-29T02:39:15.006Z,8.60
2023-03-29T02:40:15.236Z,8.60
2023-03-29T02:41:15.532Z,8.60
2023-03-29T02:42:15.849Z,8.63
2023-03-29T02:43:16.171Z,8.62
2023-03-29T02:44:16.492Z,8.54
2023-03-29T02:45:16.836Z,8.53
2023-03-29T02:46:17.133Z,8.50
2023-03-29T02:47:17.773Z,8.51
2023-03-29T02:48:17.766Z,8.48
2023-03-29T02:49:18.031Z,8.51
2023-03-29T02:50:18.254Z,8.55
2023-03-29T02:51:20.027Z,8.60
2023-03-29T02:52:18.840Z,8.63
2023-03-29T02:53:19.129Z,8.69
2023-03-29T02:54:19.315Z,8.63
2023-03-29T02:55:19.572Z,8.54
2023-03-29T02:56:19.897Z,8.44
2023-03-29T02:57:20.179Z,8.45
2023-03-29T02:58:20.587Z,8.44
2023-03-29T02:59:21.594Z,8.44
2023-03-29T03:00:21.043Z,8.47
2023-03-29T03:01:21.374Z,8.47
2023-03-29T03:02:21.606Z,8.50
2023-03-29T03:03:22.049Z,8.51
2023-03-29T03:04:22.185Z,8.50
2023-03-29T03:05:22.426Z,8.48
2023-03-29T03:06:22.782Z,8.47
2023-03-29T03:07:22.946Z,8.50
2023-03-29T03:08:23.388Z,8.50
2023-03-29T03:09:23.563Z,8.55
2023-03-29T03:10:23.829Z,8.55
2023-03-29T03:11:24.563Z,8.54
2023-03-29T03:12:24.319Z,8.62
2023-03-29T03:13:24.673Z,8.60
2023-03-29T03:14:25.783Z,8.57
2023-03-29T03:15:25.237Z,8.53
2023-03-29T03:16:25.592Z,8.55
2023-03-29T03:17:25.829Z,8.53
2023-03-29T03:18:26.085Z,8.53
2023-03-29T03:19:26.411Z,8.53
2023-03-29T03:20:26.687Z,8.57
2023-03-29T03:21:27.042Z,8.53
2023-03-29T03:22:27.324Z,8.51
2023-03-29T03:23:27.644Z,8.54
2023-03-29T03:24:28.808Z,8.55
2023-03-29T03:25:28.249Z,8.55
2023-03-29T03:26:28.516Z,8.54
2023-03-29T03:27:28.851Z,8.53
2023-03-29T03:28:29.111Z,8.53
2023-03-29T03:29:29.448Z,8.55
2023-03-29T03:30:29.747Z,8.57
2023-03-29T03:31:30.027Z,8.57
2023-03-29T03:32:30.383Z,8.54
2023-03-29T03:33:30.613Z,8.47
2023-03-29T03:34:30.890Z,8.48
2023-03-29T03:35:31.207Z,8.48
2023-03-29T03:36:31.471Z,8.45
2023-03-29T03:37:31.874Z,8.44
2023-03-29T03:38:32.162Z,8.42
2023-03-29T03:39:32.431Z,8.42
2023-03-29T03:40:32.744Z,8.37
2023-03-29T03:41:33.031Z,8.35
2023-03-29T03:42:33.375Z,8.36
2023-03-29T03:43:33.639Z,8.36
2023-03-29T03:44:33.931Z,8.42
2023-03-29T03:45:34.234Z,8.39
2023-03-29T03:46:34.533Z,8.39
2023-03-29T03:47:34.892Z,8.35
2023-03-29T03:48:35.215Z,8.30
2023-03-29T03:49:35.431Z,8.29
2023-03-29T03:50:35.768Z,8.30
2023-03-29T03:51:36.041Z,8.33
2023-03-29T03:52:36.342Z,8.33
2023-03-29T03:53:36.631Z,8.35
2023-03-29T03:54:36.980Z,8.32
2023-03-29T03:55:37.330Z,8.32
2023-03-29T03:56:37.590Z,8.29
2023-03-29T03:57:37.808Z,8.30
2023-03-29T03:58:38.142Z,8.29
2023-03-29T03:59:38.393Z,8.28
2023-03-29T04:00:38.705Z,8.28
2023-03-29T04:01:39.026Z,8.28
2023-03-29T04:02:39.374Z,8.29
2023-03-29T04:03:39.776Z,8.32
2023-03-29T04:04:40.780Z,8.30
2023-03-29T04:05:40.230Z,8.29
2023-03-29T04:06:43.125Z,8.29
2023-03-29T04:07:40.956Z,8.30
2023-03-29T04:08:41.134Z,8.30
2023-03-29T04:09:41.423Z,8.29
2023-03-29T04:10:41.643Z,8.28
2023-03-29T04:11:41.992Z,8.26
2023-03-29T04:12:42.207Z,8.22
2023-03-29T04:13:42.518Z,8.18
2023-03-29T04:14:42.862Z,8.18
2023-03-29T04:15:43.217Z,8.17
2023-03-29T04:16:43.377Z,8.18
2023-03-29T04:17:43.692Z,8.17
2023-03-29T04:18:44.018Z,8.15
2023-03-29T04:19:44.136Z,8.15
2023-03-29T04:20:45.326Z,8.14
2023-03-29T04:21:44.729Z,8.14
2023-03-29T04:22:45.028Z,8.15
2023-03-29T04:23:45.252Z,8.18
2023-03-29T04:24:45.548Z,8.20
2023-03-29T04:25:45.841Z,8.17
2023-03-29T04:26:47.016Z,8.18
2023-03-29T04:27:46.494Z,8.18
2023-03-29T04:28:46.648Z,8.21
2023-03-29T04:29:47.852Z,8.20
2023-03-29T04:30:47.368Z,8.18
2023-03-29T04:31:47.533Z,8.15
2023-03-29T04:32:47.840Z,8.12
2023-03-29T04:33:48.022Z,8.12
2023-03-29T04:34:48.437Z,8.14
2023-03-29T04:35:48.717Z,8.14
2023-03-29T04:36:49.096Z,8.11
2023-03-29T04:37:49.343Z,8.11
2023-03-29T04:38:49.601Z,8.11
2023-03-29T04:39:49.884Z,8.08
2023-03-29T04:40:50.217Z,8.03
2023-03-29T04:41:50.475Z,8.04
2023-03-29T04:42:50.664Z,8.02
2023-03-29T04:43:50.983Z,8.02
2023-03-29T04:44:52.200Z,8.03
2023-03-29T04:45:51.652Z,8.04
2023-03-29T04:46:52.073Z,8.03
2023-03-29T04:47:52.304Z,8.02
2023-03-29T04:48:52.541Z,8.03
2023-03-29T04:49:52.823Z,8.02
2023-03-29T04:50:53.033Z,8.03
2023-03-29T04:51:53.328Z,8.04
2023-03-29T04:52:53.622Z,8.08
2023-03-29T04:53:53.812Z,8.10
2023-03-29T04:54:54.080Z,8.11
2023-03-29T04:55:54.391Z,8.10
2023-03-29T04:56:54.707Z,8.12
2023-03-29T04:57:54.998Z,8.12
2023-03-29T04:58:55.330Z,8.11
2023-03-29T04:59:55.677Z,8.12
2023-03-29T05:00:56.024Z,8.15
2023-03-29T05:01:56.238Z,8.14
2023-03-29T05:02:56.616Z,8.08
2023-03-29T05:03:56.902Z,8.04
2023-03-29T05:04:57.048Z,8.08
2023-03-29T05:05:57.259Z,8.08
2023-03-29T05:06:57.614Z,8.11
2023-03-29T05:07:57.853Z,8.14
2023-03-29T05:08:58.215Z,8.07
2023-03-29T05:09:58.409Z,7.99
2023-03-29T05:10:58.750Z,7.93
2023-03-29T05:11:59.065Z,7.93
2023-03-29T05:12:59.413Z,7.96
2023-03-29T05:13:59.813Z,7.94
2023-03-29T05:15:00.003Z,7.97
2023-03-29T05:16:00.309Z,7.96
2023-03-29T05:17:00.448Z,7.97
2023-03-29T05:18:00.910Z,8.03
2023-03-29T05:19:01.116Z,8.10
2023-03-29T05:20:01.332Z,8.11
2023-03-29T05:21:01.836Z,8.18
2023-03-29T05:22:01.970Z,8.22
2023-03-29T05:23:02.216Z,8.21
2023-03-29T05:24:02.427Z,8.25
2023-03-29T05:25:02.688Z,8.15
2023-03-29T05:26:02.974Z,8.03
2023-03-29T05:27:03.174Z,8.00
2023-03-29T05:28:03.510Z,7.96
2023-03-29T05:29:03.706Z,7.99
2023-03-29T05:30:04.070Z,8.02
2023-03-29T05:31:04.886Z,8.08
2023-03-29T05:32:04.624Z,8.03
2023-03-29T05:33:04.812Z,7.97
2023-03-29T05:34:05.114Z,7.93
2023-03-29T05:35:05.423Z,8.00
2023-03-29T05:36:05.808Z,8.03
2023-03-29T05:37:05.997Z,8.12
2023-03-29T05:38:06.327Z,8.15
2023-03-29T05:39:06.655Z,8.15
2023-03-29T05:40:07.125Z,8.17
2023-03-29T05:41:07.277Z,8.11
2023-03-29T05:42:07.614Z,8.15
2023-03-29T05:43:07.971Z,8.17
2023-03-29T05:44:08.211Z,8.15
2023-03-29T05:45:08.538Z,8.08
2023-03-29T05:46:08.957Z,8.12
2023-03-29T05:47:09.150Z,8.14
2023-03-29T05:48:09.585Z,8.18
2023-03-29T05:49:09.775Z,8.28
2023-03-29T05:50:10.164Z,8.29
2023-03-29T05:51:10.426Z,8.30
2023-03-29T05:52:10.623Z,8.30
2023-03-29T05:53:11.022Z,8.29
2023-03-29T05:54:11.218Z,8.29
2023-03-29T05:55:11.628Z,8.28
2023-03-29T05:56:11.823Z,8.26
2023-03-29T05:57:12.202Z,8.22
2023-03-29T05:58:12.544Z,8.21
2023-03-29T05:59:12.770Z,8.25
2023-03-29T06:00:13.077Z,8.20
2023-03-29T06:01:13.342Z,8.11
2023-03-29T06:02:13.538Z,8.03
2023-03-29T06:03:20.244Z,8.07
2023-03-29T06:04:15.207Z,8.12
2023-03-29T06:05:14.428Z,8.08
2023-03-29T06:06:14.644Z,8.08
2023-03-29T06:07:14.945Z,8.10
2023-03-29T06:08:15.139Z,8.10
2023-03-29T06:09:15.486Z,8.12
2023-03-29T06:10:15.695Z,8.15
2023-03-29T06:11:16.125Z,8.10
2023-03-29T06:12:16.248Z,8.08
2023-03-29T06:13:16.640Z,8.08
2023-03-29T06:14:16.890Z,8.12
2023-03-29T06:15:17.127Z,8.21
2023-03-29T06:16:17.405Z,8.25
2023-03-29T06:17:17.655Z,8.25
2023-03-29T06:18:17.833Z,8.22
2023-03-29T06:19:18.237Z,8.22
2023-03-29T06:20:18.420Z,8.29
2023-03-29T06:21:18.740Z,8.32
2023-03-29T06:22:19.009Z,8.39
2023-03-29T06:23:19.361Z,8.44
2023-03-29T06:24:19.609Z,8.48
2023-03-29T06:25:19.953Z,8.47
2023-03-29T06:26:20.294Z,8.48
2023-03-29T06:27:20.546Z,8.54
2023-03-29T06:28:20.771Z,8.62
2023-03-29T06:29:21.076Z,8.62
2023-03-29T06:30:21.355Z,8.65
2023-03-29T06:31:21.681Z,8.65
2023-03-29T06:32:22.885Z,8.68
2023-03-29T06:33:22.277Z,8.73
2023-03-29T06:34:22.547Z,8.79
2023-03-29T06:35:22.765Z,8.86
2023-03-29T06:36:22.981Z,8.87
2023-03-29T06:37:23.399Z,8.86
2023-03-29T06:38:23.748Z,8.83
2023-03-29T06:39:24.012Z,8.75
2023-03-29T06:40:24.214Z,8.75
2023-03-29T06:41:24.475Z,8.78
2023-03-29T06:42:24.682Z,8.84
2023-03-29T06:43:25.055Z,8.86
2023-03-29T06:44:25.307Z,8.86
2023-03-29T06:45:26.839Z,8.86
2023-03-29T06:46:25.853Z,8.87
2023-03-29T06:47:26.089Z,8.90
2023-03-29T06:48:26.762Z,8.83
2023-03-29T06:49:26.628Z,8.69
2023-03-29T06:50:26.863Z,8.75
2023-03-29T06:51:27.234Z,8.78
2023-03-29T06:52:27.548Z,8.87
2023-03-29T06:53:27.711Z,8.93
2023-03-29T06:54:28.072Z,8.81
2023-03-29T06:55:28.407Z,8.75
2023-03-29T06:56:28.741Z,8.71
2023-03-29T06:57:28.952Z,8.76
2023-03-29T06:58:29.196Z,8.81
2023-03-29T06:59:30.398Z,8.91
2023-03-29T07:00:29.927Z,8.96
2023-03-29T07:01:30.117Z,9.05
2023-03-29T07:02:30.356Z,9.16
2023-03-29T07:03:30.607Z,9.18
2023-03-29T07:04:30.886Z,9.21
2023-03-29T07:05:31.214Z,9.21
2023-03-29T07:06:31.382Z,9.21
2023-03-29T07:07:31.729Z,9.21
2023-03-29T07:08:31.925Z,9.24
2023-03-29T07:09:32.319Z,9.23
2023-03-29T07:10:32.872Z,9.20
2023-03-29T07:11:32.821Z,9.25
2023-03-29T07:12:33.227Z,9.27
2023-03-29T07:13:33.418Z,9.23
2023-03-29T07:14:33.822Z,9.27
2023-03-29T07:15:34.061Z,9.32
2023-03-29T07:16:34.428Z,9.38
2023-03-29T07:17:34.785Z,9.31
2023-03-29T07:18:35.010Z,9.32
2023-03-29T07:19:36.129Z,9.35
2023-03-29T07:20:35.568Z,9.43
2023-03-29T07:21:37.877Z,9.45
2023-03-29T07:22:35.997Z,9.45
2023-03-29T07:23:36.352Z,9.52
2023-03-29T07:24:36.729Z,9.58
2023-03-29T07:25:37.013Z,9.64
2023-03-29T07:26:37.940Z,9.70
2023-03-29T07:27:37.513Z,9.73
2023-03-29T07:28:37.913Z,9.76
2023-03-29T07:29:38.249Z,9.86
2023-03-29T07:30:38.556Z,9.85
2023-03-29T07:31:38.781Z,9.86
2023-03-29T07:32:39.167Z,9.88
2023-03-29T07:33:39.498Z,9.76
2023-03-29T07:34:39.636Z,9.81
2023-03-29T07:35:39.896Z,9.76
2023-03-29T07:36:40.163Z,9.76
2023-03-29T07:37:40.408Z,9.79
2023-03-29T07:38:40.667Z,9.82
2023-03-29T07:39:41.363Z,9.75
2023-03-29T07:40:41.187Z,9.64
2023-03-29T07:41:41.425Z,9.73
2023-03-29T07:42:41.698Z,9.78
2023-03-29T07:43:41.924Z,9.75
2023-03-29T07:44:42.356Z,9.79
2023-03-29T07:45:42.566Z,9.81
2023-03-29T07:46:42.958Z,9.86
2023-03-29T07:47:43.140Z,9.96
2023-03-29T07:48:43.593Z,10.00
2023-03-29T07:49:43.796Z,10.04
2023-03-29T07:50:44.114Z,10.03
2023-03-29T07:51:44.328Z,10.04
2023-03-29T07:52:44.732Z,10.10
2023-03-29T07:53:44.902Z,10.17
2023-03-29T07:54:45.158Z,10.24
2023-03-29T07:55:47.018Z,10.22
2023-03-29T07:56:45.814Z,10.26
2023-03-29T07:57:45.951Z,10.30
2023-03-29T07:58:46.318Z,10.32
2023-03-29T07:59:46.603Z,10.34
2023-03-29T08:00:46.866Z,10.39
2023-03-29T08:01:47.152Z,10.36
2023-03-29T08:02:47.419Z,10.36
2023-03-29T08:03:47.616Z,10.40
2023-03-29T08:04:47.846Z,10.44
2023-03-29T08:05:48.106Z,10.52
2023-03-29T08:06:48.449Z,10.58
2023-03-29T08:07:48.822Z,10.60
2023-03-29T08:08:49.139Z,10.59
2023-03-29T08:09:49.228Z,10.58
2023-03-29T08:10:49.538Z,10.68
2023-03-29T08:11:49.752Z,10.65
2023-03-29T08:12:50.108Z,10.66
2023-03-29T08:13:50.588Z,10.66
2023-03-29T08:14:50.621Z,10.63
2023-03-29T08:15:50.947Z,10.63
2023-03-29T08:16:51.384Z,10.63
2023-03-29T08:17:51.703Z,10.66
2023-03-29T08:18:51.925Z,10.71
2023-03-29T08:19:52.318Z,10.77
2023-03-29T08:20:52.535Z,10.81
2023-03-29T08:21:52.987Z,10.81
2023-03-29T08:22:53.009Z,10.88
2023-03-29T08:23:53.291Z,10.77
2023-03-29T08:24:53.575Z,10.80
2023-03-29T08:25:53.843Z,10.83
2023-03-29T08:26:54.201Z,10.81
2023-03-29T08:27:54.376Z,10.78
2023-03-29T08:28:54.667Z,10.78
2023-03-29T08:29:55.258Z,10.83
2023-03-29T08:30:55.254Z,10.83
2023-03-29T08:31:55.609Z,10.84
2023-03-29T08:32:55.829Z,10.89
2023-03-29T08:33:56.093Z,10.96
2023-03-29T08:34:56.470Z,10.98
2023-03-29T08:35:56.608Z,10.95
2023-03-29T08:36:56.889Z,10.96
2023-03-29T08:37:57.165Z,10.98
2023-03-29T08:38:58.432Z,10.99
2023-03-29T08:39:57.699Z,10.95
2023-03-29T08:40:57.998Z,10.91
2023-03-29T08:41:58.241Z,10.92
2023-03-29T08:42:58.586Z,10.98
2023-03-29T08:43:58.786Z,11.03
2023-03-29T08:44:59.034Z,10.96
2023-03-29T08:45:59.360Z,10.98
2023-03-29T08:46:59.694Z,11.03
2023-03-29T08:47:59.953Z,11.07
2023-03-29T08:49:00.127Z,11.10
2023-03-29T08:50:00.499Z,11.14
2023-03-29T08:51:00.936Z,11.11
2023-03-29T08:52:01.078Z,11.16
2023-03-29T08:53:01.345Z,11.20
2023-03-29T08:54:01.554Z,11.19
2023-03-29T08:55:01.930Z,11.28
2023-03-29T08:56:03.090Z,11.34
2023-03-29T08:57:02.565Z,11.32
2023-03-29T08:58:02.711Z,11.24
2023-03-29T08:59:03.081Z,11.20
2023-03-29T09:00:03.267Z,11.14
2023-03-29T09:01:03.690Z,11.06
2023-03-29T09:02:03.852Z,11.07
2023-03-29T09:03:04.236Z,11.02
2023-03-29T09:04:04.489Z,11.01
2023-03-29T09:05:04.642Z,11.01
2023-03-29T09:06:04.972Z,11.06
2023-03-29T09:07:05.246Z,11.06
2023-03-29T09:08:05.453Z,11.01
2023-03-29T09:09:05.867Z,11.02
2023-03-29T09:10:06.023Z,11.02
2023-03-29T09:11:06.306Z,10.95
2023-03-29T09:12:06.513Z,10.98
2023-03-29T09:13:06.745Z,11.01
2023-03-29T09:14:07.046Z,11.01
2023-03-29T09:15:07.267Z,11.02
2023-03-29T09:16:07.538Z,10.99
2023-03-29T09:17:07.965Z,10.99
2023-03-29T09:18:08.060Z,11.01
2023-03-29T09:19:08.233Z,11.06
2023-03-29T09:20:08.621Z,11.02
2023-03-29T09:21:08.900Z,10.99
2023-03-29T09:22:09.165Z,10.99
2023-03-29T09:23:09.389Z,11.09
2023-03-29T09:24:09.720Z,11.14
2023-03-29T09:25:10.069Z,11.21
2023-03-29T09:26:10.281Z,11.31
2023-03-29T09:27:10.911Z,11.41
2023-03-29T09:28:11.606Z,11.53
2023-03-29T09:29:11.154Z,11.67
2023-03-29T09:30:12.403Z,11.71
2023-03-29T09:31:12.731Z,11.75
2023-03-29T09:32:12.014Z,11.80
2023-03-29T09:33:12.427Z,11.85
2023-03-29T09:34:14.393Z,12.06
2023-03-29T09:35:13.654Z,12.08
2023-03-29T09:36:13.190Z,12.16
2023-03-29T09:37:13.359Z,12.24
2023-03-29T09:38:13.604Z,12.38
2023-03-29T09:39:13.915Z,12.49
2023-03-29T09:40:14.367Z,12.67
2023-03-29T09:41:14.499Z,13.04
2023-03-29T09:42:14.816Z,13.17
2023-03-29T09:43:15.003Z,13.24
2023-03-29T09:45:16.620Z,13.21
2023-03-29T09:46:16.467Z,13.20
2023-03-29T09:47:17.128Z,13.12
2023-03-29T09:48:16.406Z,12.89
2023-03-29T09:49:17.447Z,12.82
2023-03-29T09:50:29.651Z,12.74
2023-03-29T09:51:18.212Z,12.70
2023-03-29T09:52:17.480Z,12.81
2023-03-29T09:53:17.782Z,12.89
2023-03-29T09:54:17.997Z,12.97
2023-03-29T09:55:19.195Z,13.14
2023-03-29T09:56:18.556Z,13.27
2023-03-29T09:57:18.965Z,13.33
2023-03-29T09:58:19.179Z,13.46
2023-03-29T09:59:19.374Z,13.69
2023-03-29T10:00:19.637Z,13.80
2023-03-29T10:01:19.937Z,13.95
2023-03-29T10:02:20.190Z,14.21
2023-03-29T10:03:20.463Z,14.53
2023-03-29T10:04:20.737Z,14.84
2023-03-29T10:05:21.082Z,14.93
2023-03-29T10:06:21.332Z,15.06
2023-03-29T10:07:21.588Z,15.06
2023-03-29T10:08:22.795Z,14.99
2023-03-29T10:09:22.143Z,14.81
2023-03-29T10:10:22.420Z,14.62
2023-03-29T10:11:22.859Z,14.57
2023-03-29T10:12:22.968Z,14.62
2023-03-29T10:13:23.271Z,14.65
2023-03-29T10:14:23.500Z,14.60
2023-03-29T10:15:29.606Z,14.67
2023-03-29T10:16:25.051Z,14.99
2023-03-29T10:17:24.396Z,15.03
2023-03-29T10:18:24.673Z,15.08
2023-03-29T10:19:24.926Z,14.95
2023-03-29T10:20:25.395Z,14.86
2023-03-29T10:21:25.475Z,15.01
2023-03-29T10:22:25.757Z,15.17
2023-03-29T10:23:26.118Z,15.45
2023-03-29T10:24:26.255Z,15.59
2023-03-29T10:25:26.609Z,15.61
2023-03-29T10:26:26.867Z,15.60
2023-03-29T10:27:27.129Z,15.82
2023-03-29T10:28:27.377Z,15.99
2023-03-29T10:29:27.608Z,15.99
2023-03-29T10:30:27.851Z,15.72
2023-03-29T10:31:28.113Z,15.82
2023-03-29T10:32:28.408Z,16.26
2023-03-29T10:33:28.652Z,16.44
2023-03-29T10:34:28.883Z,16.56
2023-03-29T10:35:29.249Z,16.49
2023-03-29T10:36:29.552Z,16.37
2023-03-29T10:37:29.765Z,16.20
2023-03-29T10:38:30.130Z,16.27
2023-03-29T10:39:30.348Z,16.42
2023-03-29T10:40:30.629Z,16.55
2023-03-29T10:41:31.195Z,16.74
2023-03-29T10:42:31.207Z,17.03
2023-03-29T10:43:31.642Z,17.17
2023-03-29T10:44:33.227Z,17.17
2023-03-29T10:45:32.172Z,17.26
2023-03-29T10:46:32.508Z,16.96
2023-03-29T10:47:32.776Z,16.42
2023-03-29T10:48:33.022Z,16.41
2023-03-29T10:49:33.296Z,16.49
2023-03-29T10:50:33.523Z,16.35
2023-03-29T10:51:33.968Z,16.03
2023-03-29T10:52:34.152Z,16.04
2023-03-29T10:53:34.350Z,15.96
2023-03-29T10:54:34.603Z,15.72
2023-03-29T10:55:34.919Z,15.60
2023-03-29T10:56:35.554Z,15.56
2023-03-29T10:57:35.490Z,15.67
2023-03-29T10:58:35.658Z,15.84
2023-03-29T10:59:35.996Z,15.92
2023-03-29T11:00:36.234Z,16.09
2023-03-29T11:01:37.420Z,16.22
2023-03-29T11:02:36.917Z,16.65
2023-03-29T11:03:37.201Z,17.00
2023-03-29T11:04:37.416Z,17.23
2023-03-29T11:05:37.581Z,17.59
2023-03-29T11:06:38.032Z,18.28
2023-03-29T11:07:38.248Z,18.91
2023-03-29T11:08:38.480Z,19.69
2023-03-29T11:09:38.940Z,20.33
2023-03-29T11:10:40.041Z,20.38
2023-03-29T11:11:39.372Z,19.63
2023-03-29T11:12:39.607Z,19.66
2023-03-29T11:13:39.953Z,19.47
2023-03-29T11:14:40.155Z,19.53
2023-03-29T11:15:40.446Z,18.57
2023-03-29T11:16:40.715Z,18.43
2023-03-29T11:17:41.053Z,18.76
2023-03-29T11:18:41.342Z,19.10
2023-03-29T11:19:41.542Z,18.91
2023-03-29T11:20:41.822Z,19.20
2023-03-29T11:21:42.177Z,19.28
2023-03-29T11:22:42.628Z,19.32
2023-03-29T11:23:42.761Z,19.60
2023-03-29T11:24:43.298Z,20.15
2023-03-29T11:25:43.306Z,20.49
2023-03-29T11:26:43.818Z,20.35
2023-03-29T11:27:43.890Z,20.50
2023-03-29T11:28:44.312Z,20.28
2023-03-29T11:29:44.622Z,20.83
2023-03-29T11:30:44.714Z,21.23
2023-03-29T11:31:45.174Z,21.24
2023-03-29T11:32:45.571Z,21.11
2023-03-29T11:33:45.672Z,20.66
2023-03-29T11:34:45.867Z,19.72
2023-03-29T11:35:46.153Z,19.57
2023-03-29T11:36:46.415Z,19.57
2023-03-29T11:37:46.643Z,19.29
2023-03-29T11:38:46.915Z,18.92
2023-03-29T11:39:47.174Z,18.50
2023-03-29T11:40:47.533Z,18.28
2023-03-29T11:41:47.797Z,18.31
2023-03-29T11:42:48.049Z,18.84
2023-03-29T11:43:48.409Z,19.54
2023-03-29T11:44:48.728Z,20.05
2023-03-29T11:45:49.035Z,20.34
2023-03-29T11:46:49.303Z,20.23
2023-03-29T11:47:49.591Z,20.43
2023-03-29T11:48:49.817Z,20.69
2023-03-29T11:49:50.167Z,20.77
2023-03-29T11:50:50.457Z,20.81
2023-03-29T11:51:50.702Z,20.69
2023-03-29T11:52:51.050Z,20.18
2023-03-29T11:53:51.271Z,19.98
2023-03-29T11:54:51.528Z,20.00
2023-03-29T11:55:51.776Z,19.98
2023-03-29T11:56:52.101Z,19.79
2023-03-29T11:57:52.326Z,19.61
2023-03-29T11:58:52.602Z,18.62
2023-03-29T11:59:52.917Z,18.65
2023-03-29T12:00:53.140Z,19.35
2023-03-29T12:01:53.705Z,19.15
2023-03-29T12:02:53.837Z,19.17
2023-03-29T12:03:54.161Z,19.76
2023-03-29T12:04:54.455Z,20.79
2023-03-29T12:05:54.700Z,21.50
2023-03-29T12:06:54.925Z,21.91
2023-03-29T12:07:55.229Z,22.28
2023-03-29T12:08:55.458Z,22.02
2023-03-29T12:09:55.836Z,22.17
2023-03-29T12:10:56.100Z,22.60
2023-03-29T12:11:56.359Z,22.46
2023-03-29T12:12:56.582Z,22.12
2023-03-29T12:13:56.816Z,21.94
2023-03-29T12:14:57.073Z,22.07
2023-03-29T12:15:57.295Z,21.45
2023-03-29T12:16:57.632Z,20.98
2023-03-29T12:17:57.850Z,21.16
2023-03-29T12:18:58.658Z,20.81
2023-03-29T12:19:58.567Z,20.20
2023-03-29T12:20:58.928Z,19.53
2023-03-29T12:21:59.131Z,19.38
2023-03-29T12:22:59.363Z,18.77
2023-03-29T12:23:59.671Z,18.24
2023-03-29T12:25:00.010Z,18.18
2023-03-29T12:26:00.519Z,18.24
2023-03-29T12:27:00.763Z,18.34
2023-03-29T12:28:01.067Z,18.47
2023-03-29T12:29:01.251Z,18.70
2023-03-29T12:30:01.512Z,18.72
2023-03-29T12:31:02.083Z,18.62
2023-03-29T12:32:02.183Z,18.65
2023-03-29T12:33:02.375Z,18.94
2023-03-29T12:34:02.640Z,18.84
2023-03-29T12:35:02.848Z,18.58
2023-03-29T12:36:03.263Z,18.46
2023-03-29T12:37:03.554Z,18.86
2023-03-29T12:38:03.827Z,18.79
2023-03-29T12:39:04.108Z,18.87
2023-03-29T12:40:04.358Z,18.95
2023-03-29T12:41:04.811Z,19.11
2023-03-29T12:42:04.919Z,19.40
2023-03-29T12:43:05.184Z,19.66
2023-03-29T12:44:05.442Z,19.47
2023-03-29T12:45:05.784Z,19.31
2023-03-29T12:46:06.223Z,19.28
2023-03-29T12:47:06.374Z,19.15
2023-03-29T12:48:06.601Z,19.13
2023-03-29T12:49:06.843Z,19.05
2023-03-29T12:50:07.149Z,19.02
2023-03-29T12:51:07.294Z,18.97
2023-03-29T12:52:07.664Z,18.90
2023-03-29T12:53:07.881Z,18.77
2023-03-29T12:54:08.200Z,18.84
2023-03-29T12:55:08.412Z,18.95
2023-03-29T12:56:08.806Z,19.14
2023-03-29T12:57:08.930Z,19.20
2023-03-29T12:58:09.306Z,19.17
2023-03-29T12:59:09.409Z,19.14
2023-03-29T13:00:09.752Z,19.18
2023-03-29T13:01:10.198Z,19.13
2023-03-29T13:02:10.332Z,19.25
2023-03-29T13:03:10.570Z,19.18
2023-03-29T13:04:10.833Z,19.14
2023-03-29T13:05:11.156Z,19.21
2023-03-29T13:06:11.358Z,19.29
2023-03-29T13:07:11.590Z,19.38
2023-03-29T13:08:11.839Z,19.38
2023-03-29T13:09:12.114Z,19.35
2023-03-29T13:10:12.380Z,19.20
2023-03-29T13:11:12.627Z,19.01
2023-03-29T13:12:12.911Z,18.98